Time;durP1;ratioP1;P1;durP2;ratioP2;P2;SDS_P1;SDS_P2;PMS_P1;PMS_P2;Temp;Humidity;BMP_temperature;BMP_pressure;BME280_temperature;BME280_humidity;BME280_pressure;Samples;Min_cycle;Max_cycle;Signal;HPM_P1;HPM_P2
2021/08/01 00:00:22;;;;;;;12.70;6.78;;;;;;;14.70;100.00;100586.34;6326568;28;20052;-80
2021/08/01 00:03:24;;;;;;;10.98;6.90;;;;;;;14.71;100.00;100587.19;6325677;28;20067;-79
2021/08/01 00:06:26;;;;;;;12.32;7.20;;;;;;;14.63;100.00;100584.28;6329684;28;20035;-80
2021/08/01 00:09:27;;;;;;;11.88;6.72;;;;;;;14.68;100.00;100571.56;6329263;28;20055;-79
2021/08/01 00:12:30;;;;;;;11.70;7.75;;;;;;;14.68;100.00;100576.84;6330072;28;20049;-80
2021/08/01 00:15:31;;;;;;;10.52;7.18;;;;;;;14.63;100.00;100571.06;6329652;28;20053;-79
2021/08/01 00:18:33;;;;;;;7.65;6.43;;;;;;;14.56;100.00;100575.09;6328648;28;20044;-79
2021/08/01 00:21:34;;;;;;;10.82;7.50;;;;;;;14.54;100.00;100577.03;6327166;28;20044;-79
2021/08/01 00:24:35;;;;;;;9.43;6.63;;;;;;;14.57;100.00;100574.97;6325502;28;20054;-80
2021/08/01 00:27:38;;;;;;;11.65;8.27;;;;;;;14.57;100.00;100572.31;6326022;28;20048;-81
2021/08/01 00:30:39;;;;;;;13.80;8.45;;;;;;;14.56;100.00;100562.72;6326586;28;20076;-81
2021/08/01 00:33:41;;;;;;;12.13;8.20;;;;;;;14.59;100.00;100564.31;6326218;28;20049;-80
2021/08/01 00:36:42;;;;;;;12.50;8.13;;;;;;;14.51;100.00;100564.00;6325960;28;20048;-81
2021/08/01 00:39:43;;;;;;;12.20;6.82;;;;;;;14.48;100.00;100570.34;6326455;28;20028;-80
2021/08/01 00:42:46;;;;;;;11.80;7.38;;;;;;;14.45;100.00;100568.75;6327313;28;20049;-79
2021/08/01 00:45:49;;;;;;;12.35;8.10;;;;;;;14.33;100.00;100571.44;6327938;28;20028;-79
2021/08/01 00:48:51;;;;;;;15.50;8.60;;;;;;;14.32;100.00;100567.09;6327399;28;20032;-80
2021/08/01 00:51:55;;;;;;;11.82;8.18;;;;;;;14.29;100.00;100568.16;6326707;28;20040;-81
2021/08/01 00:54:57;;;;;;;11.73;7.65;;;;;;;14.32;100.00;100575.03;6327467;28;20052;-80
2021/08/01 00:58:00;;;;;;;13.90;8.75;;;;;;;14.30;100.00;100567.19;6326965;28;20053;-80
2021/08/01 01:01:13;;;;;;;11.95;8.55;;;;;;;14.28;100.00;100570.91;6327404;28;20040;-80
2021/08/01 01:04:23;;;;;;;18.67;9.07;;;;;;;14.21;100.00;100560.75;6327305;28;20094;-80
2021/08/01 01:07:35;;;;;;;17.15;8.65;;;;;;;14.19;100.00;100553.91;6326582;28;20037;-81
2021/08/01 01:10:41;;;;;;;13.20;8.48;;;;;;;14.24;100.00;100561.53;6326761;28;20043;-81
2021/08/01 01:13:48;;;;;;;12.52;8.52;;;;;;;14.18;100.00;100557.53;6326641;28;20045;-79
2021/08/01 01:16:54;;;;;;;11.90;8.38;;;;;;;14.19;100.00;100549.47;6326551;28;20048;-79
2021/08/01 01:20:37;;;;;;;9.63;7.75;;;;;;;14.20;100.00;100561.72;6326792;28;20058;-80
2021/08/01 01:23:43;;;;;;;11.02;8.32;;;;;;;14.13;100.00;100568.44;6326684;28;20051;-79
2021/08/01 01:26:55;;;;;;;11.95;7.85;;;;;;;14.12;100.00;100571.16;6326669;28;20036;-80
2021/08/01 01:30:01;;;;;;;12.45;7.90;;;;;;;14.10;100.00;100570.44;6326156;28;20033;-80
2021/08/01 01:33:09;;;;;;;11.70;8.45;;;;;;;14.01;100.00;100568.44;6325882;28;20048;-79
2021/08/01 01:36:16;;;;;;;11.02;8.75;;;;;;;14.03;100.00;100562.06;6326898;28;20052;-81
2021/08/01 01:39:19;;;;;;;15.60;9.10;;;;;;;14.10;100.00;100552.78;6325120;28;20044;-81
2021/08/01 01:42:22;;;;;;;17.73;9.32;;;;;;;14.11;100.00;100543.88;6325875;28;20173;-80
2021/08/01 01:45:25;;;;;;;12.45;8.68;;;;;;;14.08;100.00;100543.25;6325271;28;20051;-82
2021/08/01 01:48:27;;;;;;;12.40;8.80;;;;;;;14.07;100.00;100542.41;6325657;28;20056;-80
2021/08/01 01:51:30;;;;;;;14.02;9.73;;;;;;;14.10;100.00;100544.84;6325687;28;20056;-82
2021/08/01 01:54:34;;;;;;;15.10;9.23;;;;;;;14.14;100.00;100542.84;6321761;28;20052;-82
2021/08/01 01:57:37;;;;;;;12.48;8.73;;;;;;;14.17;100.00;100543.47;6321901;28;20056;-81
2021/08/01 02:00:39;;;;;;;13.40;8.60;;;;;;;14.16;100.00;100543.56;6322190;28;20047;-81
2021/08/01 02:03:40;;;;;;;12.40;8.60;;;;;;;14.10;100.00;100536.91;6322450;28;20056;-83
2021/08/01 02:06:43;;;;;;;12.00;7.95;;;;;;;14.08;100.00;100535.31;6323993;28;20447;-81
2021/08/01 02:09:48;;;;;;;12.55;8.88;;;;;;;14.05;100.00;100540.84;6324130;28;20052;-80
2021/08/01 02:12:52;;;;;;;17.60;10.00;;;;;;;14.04;100.00;100544.47;6324579;28;20053;-82
2021/08/01 02:15:57;;;;;;;15.25;9.63;;;;;;;14.08;100.00;100537.97;6325165;28;20052;-82
2021/08/01 02:19:01;;;;;;;11.73;9.18;;;;;;;14.08;100.00;100532.69;6324290;28;20052;-80
2021/08/01 02:22:06;;;;;;;17.95;10.60;;;;;;;14.04;100.00;100534.72;6324646;28;20051;-81
2021/08/01 02:25:09;;;;;;;15.77;9.77;;;;;;;14.08;100.00;100537.97;6323812;28;20052;-81
2021/08/01 02:28:11;;;;;;;14.80;10.15;;;;;;;14.05;100.00;100546.97;6323675;28;20040;-81
2021/08/01 02:31:15;;;;;;;15.90;10.30;;;;;;;14.05;100.00;100559.34;6323333;28;20049;-82
2021/08/01 02:34:16;;;;;;;11.45;8.45;;;;;;;14.03;100.00;100542.75;6323816;28;20055;-82
2021/08/01 02:37:20;;;;;;;13.52;10.05;;;;;;;14.00;100.00;100549.09;6323798;28;20063;-81
2021/08/01 02:40:21;;;;;;;14.98;10.13;;;;;;;14.02;100.00;100554.28;6323446;28;20032;-83
2021/08/01 02:43:26;;;;;;;13.85;9.75;;;;;;;14.03;100.00;100548.03;6323540;28;20079;-82
2021/08/01 02:46:30;;;;;;;14.95;10.35;;;;;;;14.00;100.00;100540.34;6322497;28;20060;-81
2021/08/01 02:49:37;;;;;;;17.10;9.98;;;;;;;14.04;100.00;100542.66;6342111;22;20072;-76
2021/08/01 02:52:55;;;;;;;19.33;10.70;;;;;;;13.98;100.00;100548.34;6300570;28;20052;-74
2021/08/01 02:56:00;;;;;;;14.48;9.85;;;;;;;14.00;100.00;100553.56;6295591;28;20070;-75
2021/08/01 02:59:03;;;;;;;15.40;10.27;;;;;;;13.95;100.00;100530.94;6295454;28;20049;-76
2021/08/01 03:02:08;;;;;;;17.80;10.75;;;;;;;13.90;100.00;100522.50;6295579;28;20048;-76
2021/08/01 03:05:11;;;;;;;14.48;10.25;;;;;;;13.82;100.00;100524.00;6296307;28;20510;-75
2021/08/01 03:08:14;;;;;;;15.65;10.70;;;;;;;13.82;100.00;100526.63;6300062;28;20048;-76
2021/08/01 03:11:22;;;;;;;14.60;10.13;;;;;;;13.89;100.00;100523.41;6299815;28;20053;-75
2021/08/01 03:14:24;;;;;;;14.10;10.38;;;;;;;13.88;100.00;100537.59;6300124;28;20056;-76
2021/08/01 03:17:25;;;;;;;20.40;11.25;;;;;;;13.86;100.00;100528.09;6298430;28;20415;-76
2021/08/01 03:20:26;;;;;;;19.63;11.57;;;;;;;13.81;100.00;100522.31;6284516;28;20045;-76
2021/08/01 03:23:29;;;;;;;18.77;10.95;;;;;;;13.78;100.00;100527.78;6294245;28;20499;-76
2021/08/01 03:26:30;;;;;;;20.65;11.00;;;;;;;13.77;100.00;100534.03;6299849;28;20059;-76
2021/08/01 03:29:32;;;;;;;18.20;11.23;;;;;;;13.75;100.00;100541.19;6281642;28;20060;-76
2021/08/01 03:32:33;;;;;;;20.13;12.02;;;;;;;13.76;100.00;100549.00;6274821;28;20467;-76
2021/08/01 03:35:35;;;;;;;22.70;11.07;;;;;;;13.74;100.00;100561.50;6274856;28;20049;-76
2021/08/01 03:38:37;;;;;;;19.67;10.57;;;;;;;13.77;100.00;100563.09;6279568;28;20443;-76
2021/08/01 03:41:41;;;;;;;16.83;11.23;;;;;;;13.79;100.00;100577.03;6279866;28;20059;-76
2021/08/01 03:44:42;;;;;;;15.65;11.95;;;;;;;13.78;100.00;100572.69;6274275;28;20053;-76
2021/08/01 03:47:43;;;;;;;17.50;12.38;;;;;;;13.77;100.00;100573.66;6274127;28;20048;-76
2021/08/01 03:50:45;;;;;;;18.80;11.70;;;;;;;13.81;100.00;100562.75;6285288;28;20045;-76
2021/08/01 03:53:48;;;;;;;21.67;11.95;;;;;;;13.84;100.00;100567.81;6281445;28;20056;-76
2021/08/01 03:56:50;;;;;;;18.90;11.85;;;;;;;13.85;100.00;100569.53;6274241;28;20444;-75
2021/08/01 03:59:51;;;;;;;18.25;11.90;;;;;;;13.87;100.00;100578.19;6276331;28;20044;-75
2021/08/01 04:02:52;;;;;;;17.15;12.07;;;;;;;13.84;100.00;100575.75;6292787;28;20124;-76
2021/08/01 04:05:54;;;;;;;20.00;12.07;;;;;;;13.89;100.00;100585.97;6284713;28;20045;-76
2021/08/01 04:08:57;;;;;;;21.10;11.82;;;;;;;13.93;100.00;100579.53;6283523;28;20127;-76
2021/08/01 04:11:58;;;;;;;20.67;12.38;;;;;;;13.95;100.00;100585.56;6286106;28;20059;-75
2021/08/01 04:15:00;;;;;;;19.00;12.68;;;;;;;13.94;100.00;100584.72;6273634;28;20523;-76
2021/08/01 04:18:02;;;;;;;20.25;12.32;;;;;;;13.93;100.00;100580.38;6272938;28;20060;-76
2021/08/01 04:21:07;;;;;;;24.88;12.82;;;;;;;13.93;100.00;100561.88;6274986;28;20106;-76
2021/08/01 04:24:10;;;;;;;23.70;12.15;;;;;;;13.93;100.00;100563.69;6284597;28;20059;-76
2021/08/01 04:27:11;;;;;;;21.08;11.80;;;;;;;13.92;100.00;100567.28;6287415;28;20048;-75
2021/08/01 04:30:13;;;;;;;19.65;11.98;;;;;;;13.96;100.00;100561.69;6296438;28;20427;-76
2021/08/01 04:33:14;;;;;;;19.25;11.93;;;;;;;13.99;100.00;100557.13;6298354;28;20048;-76
2021/08/01 04:36:16;;;;;;;19.67;11.43;;;;;;;13.98;100.00;100580.06;6298098;28;20048;-76
2021/08/01 04:39:19;;;;;;;17.67;11.93;;;;;;;14.00;100.00;100575.53;6297902;28;20044;-76
2021/08/01 04:42:20;;;;;;;24.85;12.68;;;;;;;14.02;100.00;100570.97;6297864;28;20056;-76
2021/08/01 04:45:22;;;;;;;23.92;12.15;;;;;;;14.03;100.00;100580.56;6298100;28;20040;-75
2021/08/01 04:48:23;;;;;;;19.42;11.93;;;;;;;14.04;100.00;100577.00;6297534;28;20045;-76
2021/08/01 04:51:24;;;;;;;23.77;13.23;;;;;;;14.04;100.00;100581.44;6293162;28;20044;-76
2021/08/01 04:54:27;;;;;;;27.83;13.32;;;;;;;14.04;100.00;100574.38;6283687;28;20068;-76
2021/08/01 04:57:28;;;;;;;18.45;12.02;;;;;;;14.07;100.00;100579.41;6280396;28;20052;-78
2021/08/01 05:00:30;;;;;;;21.55;13.88;;;;;;;14.08;100.00;100573.19;6286568;28;20484;-78
2021/08/01 05:03:31;;;;;;;19.58;12.38;;;;;;;14.12;100.00;100577.28;6285494;28;20147;-77
2021/08/01 05:06:32;;;;;;;21.08;13.00;;;;;;;14.20;100.00;100580.22;6280298;28;20057;-77
2021/08/01 05:09:35;;;;;;;23.95;13.52;;;;;;;14.26;100.00;100575.47;6284218;28;20044;-77
2021/08/01 05:12:36;;;;;;;20.15;12.50;;;;;;;14.32;100.00;100580.31;6282688;28;20053;-77
2021/08/01 05:15:41;;;;;;;21.35;12.32;;;;;;;14.37;100.00;100583.47;6285203;28;20060;-77
2021/08/01 05:18:42;;;;;;;19.45;12.20;;;;;;;14.39;100.00;100590.34;6281992;28;20791;-76
2021/08/01 05:21:43;;;;;;;21.33;13.40;;;;;;;14.41;100.00;100582.31;6286018;28;20041;-77
2021/08/01 05:24:46;;;;;;;24.00;13.82;;;;;;;14.42;100.00;100587.47;6283492;28;20053;-77
2021/08/01 05:27:47;;;;;;;25.45;13.70;;;;;;;14.45;100.00;100591.72;6284700;28;20123;-77
2021/08/01 05:30:49;;;;;;;18.88;12.27;;;;;;;14.53;100.00;100589.38;6273347;28;20055;-78
2021/08/01 05:33:50;;;;;;;18.65;13.55;;;;;;;14.49;100.00;100577.34;6272938;28;20055;-77
2021/08/01 05:36:52;;;;;;;19.98;12.43;;;;;;;14.54;100.00;100569.09;6272071;28;20052;-76
2021/08/01 05:39:54;;;;;;;23.23;13.85;;;;;;;14.54;100.00;100571.72;6271693;28;20045;-77
2021/08/01 05:42:56;;;;;;;21.40;13.13;;;;;;;14.54;100.00;100577.03;6271995;28;20044;-76
2021/08/01 05:45:58;;;;;;;30.25;13.73;;;;;;;14.55;100.00;100571.59;6272079;28;20063;-76
2021/08/01 05:48:59;;;;;;;23.17;13.70;;;;;;;14.60;100.00;100563.34;6271677;28;20056;-77
2021/08/01 05:52:01;;;;;;;25.58;14.02;;;;;;;14.63;100.00;100571.06;6272525;28;20052;-77
2021/08/01 05:55:04;;;;;;;21.65;13.60;;;;;;;14.62;100.00;100569.34;6272055;28;20056;-77
2021/08/01 05:58:05;;;;;;;22.73;14.23;;;;;;;14.62;100.00;100566.69;6271742;28;20049;-76
2021/08/01 06:01:08;;;;;;;24.10;13.65;;;;;;;14.70;100.00;100562.53;6271943;28;20049;-77
2021/08/01 06:04:09;;;;;;;23.30;12.85;;;;;;;14.58;100.00;100566.09;6271659;28;20131;-77
2021/08/01 06:07:11;;;;;;;25.35;14.10;;;;;;;14.59;100.00;100567.78;6272288;28;20412;-77
2021/08/01 06:10:14;;;;;;;30.10;14.68;;;;;;;14.58;100.00;100563.47;6271757;28;20057;-76
2021/08/01 06:13:15;;;;;;;23.25;14.88;;;;;;;14.65;100.00;100562.03;6272327;28;20049;-77
2021/08/01 06:16:17;;;;;;;21.50;14.77;;;;;;;14.68;100.00;100556.53;6272444;28;20052;-77
2021/08/01 06:19:18;;;;;;;24.33;14.60;;;;;;;14.70;100.00;100559.06;6272509;28;20052;-77
2021/08/01 06:22:20;;;;;;;24.77;15.32;;;;;;;14.78;100.00;100563.78;6272777;28;20049;-77
2021/08/01 06:25:23;;;;;;;25.27;15.63;;;;;;;14.84;100.00;100558.88;6272969;28;20049;-76
2021/08/01 06:28:24;;;;;;;26.88;15.13;;;;;;;14.91;100.00;100561.94;6272318;28;20056;-77
2021/08/01 06:31:25;;;;;;;28.17;16.05;;;;;;;14.98;100.00;100561.34;6273017;28;20045;-78
2021/08/01 06:34:28;;;;;;;30.80;16.30;;;;;;;15.03;100.00;100565.44;6273674;28;20053;-77
2021/08/01 06:37:29;;;;;;;30.50;17.40;;;;;;;15.15;100.00;100567.19;6272505;28;20049;-79
2021/08/01 06:40:32;;;;;;;26.48;16.58;;;;;;;15.22;100.00;100568.41;6273644;28;20389;-77
2021/08/01 06:43:34;;;;;;;29.70;17.25;;;;;;;15.25;100.00;100569.97;6277405;28;20393;-77
2021/08/01 06:46:35;;;;;;;33.88;18.27;;;;;;;15.31;100.00;100567.72;6278475;28;20053;-77
2021/08/01 06:49:37;;;;;;;27.85;17.42;;;;;;;15.38;100.00;100566.28;6276574;28;20583;-77
2021/08/01 06:52:39;;;;;;;34.28;17.63;;;;;;;15.48;100.00;100571.69;6277409;28;20056;-76
2021/08/01 06:55:41;;;;;;;33.85;19.55;;;;;;;15.57;100.00;100571.00;6276785;28;20041;-77
2021/08/01 06:58:43;;;;;;;26.98;18.67;;;;;;;15.64;100.00;100572.25;6277811;28;20056;-77
2021/08/01 07:01:44;;;;;;;35.40;20.13;;;;;;;15.71;100.00;100575.25;6277425;28;20048;-77
2021/08/01 07:04:45;;;;;;;30.42;18.90;;;;;;;15.80;100.00;100574.53;6277581;28;20060;-77
2021/08/01 07:07:47;;;;;;;33.28;19.20;;;;;;;15.87;100.00;100578.41;6277261;28;20049;-78
2021/08/01 07:10:50;;;;;;;30.23;18.70;;;;;;;15.89;100.00;100570.34;6276786;28;20055;-77
2021/08/01 07:13:51;;;;;;;26.08;17.77;;;;;;;15.93;100.00;100569.13;6276985;28;20060;-77
2021/08/01 07:16:52;;;;;;;36.47;19.38;;;;;;;15.94;100.00;100582.28;6276903;28;20489;-78
2021/08/01 07:19:54;;;;;;;31.15;18.30;;;;;;;15.98;100.00;100580.22;6276613;28;20044;-76
2021/08/01 07:22:55;;;;;;;33.53;20.92;;;;;;;16.00;100.00;100580.94;6277441;28;20052;-78
2021/08/01 07:25:58;;;;;;;34.63;20.67;;;;;;;16.03;100.00;100574.56;6277370;28;20056;-77
2021/08/01 07:28:59;;;;;;;34.17;20.45;;;;;;;16.05;100.00;100575.28;6276579;28;20053;-78
2021/08/01 07:32:00;;;;;;;34.25;20.02;;;;;;;16.13;100.00;100572.88;6276941;28;20409;-77
2021/08/01 07:35:02;;;;;;;27.42;18.20;;;;;;;16.14;100.00;100567.44;6275812;28;20045;-77
2021/08/01 07:38:03;;;;;;;34.70;19.45;;;;;;;16.20;100.00;100568.75;6276631;28;20531;-78
2021/08/01 07:41:06;;;;;;;30.67;19.63;;;;;;;16.18;100.00;100566.25;6276816;28;20056;-77
2021/08/01 07:44:07;;;;;;;35.88;18.00;;;;;;;16.18;100.00;100558.28;6276873;28;20050;-78
2021/08/01 07:47:08;;;;;;;30.10;16.90;;;;;;;16.22;100.00;100564.19;6277169;28;20056;-78
2021/08/01 07:50:10;;;;;;;29.25;17.70;;;;;;;16.18;100.00;100568.88;6275335;28;20056;-78
2021/08/01 07:53:12;;;;;;;36.53;20.42;;;;;;;16.05;100.00;100554.91;6274351;28;20052;-77
2021/08/01 07:56:14;;;;;;;33.55;18.52;;;;;;;16.04;100.00;100557.72;6275230;28;20106;-78
2021/08/01 07:59:16;;;;;;;31.83;18.83;;;;;;;16.11;100.00;100566.84;6275893;28;20040;-78
2021/08/01 08:02:17;;;;;;;30.17;17.80;;;;;;;16.11;100.00;100569.50;6283791;28;20124;-78
2021/08/01 08:05:19;;;;;;;28.05;16.45;;;;;;;16.14;100.00;100566.59;6295569;28;20531;-79
2021/08/01 08:08:20;;;;;;;26.20;16.67;;;;;;;16.21;100.00;100563.34;6293144;28;20048;-79
2021/08/01 08:11:23;;;;;;;27.60;17.90;;;;;;;16.31;100.00;100567.91;6298651;28;20365;-80
2021/08/01 08:14:24;;;;;;;30.55;16.77;;;;;;;16.39;100.00;100566.31;6291526;28;20049;-80
2021/08/01 08:17:25;;;;;;;29.65;17.10;;;;;;;16.37;100.00;100560.31;6276854;28;20044;-79
2021/08/01 08:20:27;;;;;;;29.90;17.25;;;;;;;16.39;100.00;100558.34;6276525;28;20045;-78
2021/08/01 08:23:29;;;;;;;25.33;15.82;;;;;;;16.39;100.00;100565.47;6276321;28;20056;-78
2021/08/01 08:26:32;;;;;;;30.65;16.90;;;;;;;16.45;100.00;100563.19;6276071;28;20052;-79
2021/08/01 08:29:34;;;;;;;27.52;16.38;;;;;;;16.48;100.00;100570.88;6275045;28;20045;-79
2021/08/01 08:32:35;;;;;;;27.55;15.85;;;;;;;16.49;100.00;100571.75;6281118;28;20056;-79
2021/08/01 08:35:37;;;;;;;29.10;16.60;;;;;;;16.50;100.00;100568.13;6292918;28;20416;-79
2021/08/01 08:38:38;;;;;;;22.30;14.55;;;;;;;16.53;100.00;100564.34;6274369;28;20428;-79
2021/08/01 08:41:41;;;;;;;20.15;13.82;;;;;;;16.58;100.00;100572.78;6296171;28;20051;-78
2021/08/01 08:44:42;;;;;;;27.13;15.38;;;;;;;16.57;100.00;100565.78;6299391;28;20052;-77
2021/08/01 08:47:44;;;;;;;28.13;15.25;;;;;;;16.66;100.00;100563.22;6297474;28;20048;-78
2021/08/01 08:50:49;;;;;;;18.83;12.77;;;;;;;16.70;100.00;100561.19;6273574;28;20400;-79
2021/08/01 08:53:54;;;;;;;21.00;12.82;;;;;;;16.84;100.00;100566.22;6274461;28;20045;-78
2021/08/01 08:56:57;;;;;;;17.58;11.48;;;;;;;16.99;100.00;100564.97;6273908;28;20045;-78
2021/08/01 09:00:01;;;;;;;17.10;11.10;;;;;;;17.14;100.00;100560.19;6273865;28;20049;-77
2021/08/01 09:03:03;;;;;;;17.98;10.95;;;;;;;17.27;100.00;100559.16;6296759;28;20048;-82
2021/08/01 09:06:04;;;;;;;21.00;10.70;;;;;;;17.45;100.00;100555.78;6298120;28;20397;-78
2021/08/01 09:09:06;;;;;;;13.98;10.10;;;;;;;17.49;100.00;100551.88;6297507;28;20107;-78
2021/08/01 09:12:09;;;;;;;11.88;8.25;;;;;;;17.58;100.00;100552.91;6298158;28;20053;-78
2021/08/01 09:15:13;;;;;;;15.02;9.77;;;;;;;17.58;99.18;100547.59;6297908;28;20052;-77
2021/08/01 09:18:16;;;;;;;13.07;9.43;;;;;;;17.54;95.61;100550.66;6297113;28;20044;-78
2021/08/01 09:21:32;;;;;;;10.18;6.43;;;;;;;17.52;94.09;100549.94;6289432;28;20052;-79
2021/08/01 09:24:33;;;;;;;8.82;5.63;;;;;;;17.53;92.90;100549.78;6299757;28;20063;-79
2021/08/01 09:27:36;;;;;;;9.82;5.93;;;;;;;17.67;93.62;100541.50;6297637;28;20127;-78
2021/08/01 09:30:46;;;;;;;8.80;6.63;;;;;;;17.90;93.47;100533.38;6297206;28;20500;-78
2021/08/01 09:33:51;;;;;;;10.85;5.70;;;;;;;17.92;92.38;100531.41;6289057;28;20048;-77
2021/08/01 09:36:57;;;;;;;6.75;4.50;;;;;;;18.11;89.48;100534.13;6297596;28;20049;-78
2021/08/01 09:40:08;;;;;;;7.45;4.03;;;;;;;18.32;87.72;100526.06;6296955;28;20471;-78
2021/08/01 09:43:12;;;;;;;7.57;3.45;;;;;;;18.62;85.83;100521.59;6297034;28;20424;-78
2021/08/01 09:46:14;;;;;;;6.13;3.50;;;;;;;18.84;82.40;100518.69;6297123;28;20053;-78
2021/08/01 09:49:18;;;;;;;7.72;3.88;;;;;;;18.85;83.71;100512.41;6287085;28;20048;-80
2021/08/01 09:52:23;;;;;;;4.53;3.83;;;;;;;18.81;83.65;100523.50;6286293;28;20045;-78
2021/08/01 09:55:24;;;;;;;8.18;3.60;;;;;;;18.84;85.46;100524.03;6276127;28;20072;-79
2021/08/01 09:58:36;;;;;;;6.10;4.07;;;;;;;18.60;83.35;100519.09;6298017;28;20052;-79
2021/08/01 10:01:48;;;;;;;4.93;3.95;;;;;;;18.42;83.07;100512.78;6299219;28;20559;-78
2021/08/01 10:04:50;;;;;;;6.65;3.22;;;;;;;18.23;84.54;100511.78;6272677;28;20056;-78
2021/08/01 10:07:52;;;;;;;5.53;3.25;;;;;;;18.22;84.97;100512.75;6272361;28;20056;-78
2021/08/01 10:11:11;;;;;;;11.23;3.67;;;;;;;18.52;82.76;100501.16;6272153;28;20407;-79
2021/08/01 10:14:15;;;;;;;6.75;3.30;;;;;;;18.61;81.31;100502.13;6271964;28;20052;-78
2021/08/01 10:17:16;;;;;;;6.20;3.17;;;;;;;18.63;80.18;100505.53;6275063;28;20053;-78
2021/08/01 10:20:17;;;;;;;6.88;2.90;;;;;;;18.68;78.60;100505.94;6293811;28;20052;-77
2021/08/01 10:23:20;;;;;;;5.03;2.70;;;;;;;18.79;78.82;100497.00;6296946;28;20068;-80
2021/08/01 10:26:24;;;;;;;5.15;2.22;;;;;;;18.82;79.78;100491.38;6296397;28;20053;-78
2021/08/01 10:29:33;;;;;;;6.10;2.45;;;;;;;18.83;76.52;100486.91;6290622;28;20052;-78
2021/08/01 10:32:39;;;;;;;7.05;2.40;;;;;;;18.94;78.48;100486.72;6281736;28;20492;-78
2021/08/01 10:35:50;;;;;;;4.78;2.67;;;;;;;19.07;77.89;100487.28;6275794;28;20601;-77
2021/08/01 10:38:53;;;;;;;5.40;2.83;;;;;;;19.42;75.53;100481.31;6271257;28;20059;-77
2021/08/01 10:41:56;;;;;;;4.75;2.67;;;;;;;19.71;74.76;100480.38;6271353;28;20041;-77
2021/08/01 10:44:59;;;;;;;8.68;2.95;;;;;;;19.79;74.17;100479.66;6271441;28;20049;-76
2021/08/01 10:48:01;;;;;;;4.78;2.50;;;;;;;19.90;75.11;100474.13;6271286;28;20052;-79
2021/08/01 10:51:03;;;;;;;4.03;2.90;;;;;;;19.81;73.74;100473.19;6271560;28;20424;-77
2021/08/01 10:54:32;;;;;;;5.43;2.53;;;;;;;19.60;72.52;100462.75;6270213;28;20045;-77
2021/08/01 10:57:34;;;;;;;4.32;2.53;;;;;;;19.39;73.85;100476.25;6269843;28;20049;-78
2021/08/01 11:00:58;;;;;;;4.80;2.30;;;;;;;19.28;73.88;100455.13;6282446;28;20048;-79
2021/08/01 11:04:29;;;;;;;3.00;2.28;;;;;;;19.21;74.30;100456.69;6286793;28;20052;-78
2021/08/01 11:08:00;;;;;;;5.82;2.10;;;;;;;19.53;75.61;100448.31;6296042;28;20056;-78
2021/08/01 11:11:16;;;;;;;3.92;2.40;;;;;;;20.10;67.54;100441.00;6296371;28;20055;-78
2021/08/01 11:14:47;;;;;;;5.80;2.40;;;;;;;20.43;68.50;100452.81;6294203;28;20119;-78
2021/08/01 11:18:08;;;;;;;6.32;1.65;;;;;;;20.31;66.19;100440.72;6293404;28;20080;-77
2021/08/01 11:21:11;;;;;;;6.60;2.10;;;;;;;20.32;65.88;100442.41;6296228;28;20045;-79
2021/08/01 11:24:13;;;;;;;5.35;2.05;;;;;;;20.13;66.54;100438.03;6295943;28;20056;-76
2021/08/01 11:27:14;;;;;;;2.72;1.67;;;;;;;20.15;65.86;100436.03;6298393;28;20056;-77
2021/08/01 11:30:15;;;;;;;5.88;1.90;;;;;;;20.43;65.86;100434.16;6299972;28;20052;-77
2021/08/01 11:33:29;;;;;;;6.32;2.08;;;;;;;20.61;66.55;100430.66;6300320;28;20052;-76
2021/08/01 11:36:31;;;;;;;6.80;2.10;;;;;;;20.71;67.92;100434.06;6300401;28;20404;-78
2021/08/01 11:39:54;;;;;;;6.20;2.25;;;;;;;21.04;65.50;100432.50;6298981;28;20071;-78
2021/08/01 11:43:05;;;;;;;3.08;1.88;;;;;;;20.98;65.24;100433.09;6298941;28;20403;-77
2021/08/01 11:46:07;;;;;;;3.92;2.08;;;;;;;20.81;65.57;100423.31;6275489;28;20055;-77
2021/08/01 11:49:10;;;;;;;2.75;1.85;;;;;;;20.60;64.87;100415.63;6274586;28;20052;-78
2021/08/01 11:52:14;;;;;;;3.78;1.70;;;;;;;20.60;65.23;100416.47;6284970;28;20131;-77
2021/08/01 11:55:17;;;;;;;2.42;1.60;;;;;;;20.55;65.35;100429.44;6288973;28;20146;-77
2021/08/01 11:58:19;;;;;;;2.90;1.77;;;;;;;21.11;65.49;100428.19;6293781;28;20049;-78
2021/08/01 12:01:22;;;;;;;5.00;2.00;;;;;;;21.74;65.12;100430.53;6299861;28;20416;-78
2021/08/01 12:04:25;;;;;;;5.07;2.22;;;;;;;21.47;64.83;100425.41;6299906;28;20066;-77
2021/08/01 12:07:39;;;;;;;4.72;2.00;;;;;;;21.79;62.73;100420.16;6299704;28;20057;-77
2021/08/01 12:10:41;;;;;;;5.05;1.88;;;;;;;21.69;61.57;100427.50;6300729;28;20086;-78
2021/08/01 12:14:05;;;;;;;3.63;1.83;;;;;;;21.33;62.42;100431.34;6303203;28;20404;-77
2021/08/01 12:17:09;;;;;;;2.13;1.85;;;;;;;21.12;63.58;100427.22;6303041;28;20048;-78
2021/08/01 12:20:12;;;;;;;5.10;1.85;;;;;;;20.92;66.28;100429.22;6299950;28;20052;-78
2021/08/01 12:23:15;;;;;;;3.15;2.15;;;;;;;21.10;65.75;100425.69;6300729;28;20055;-79
2021/08/01 12:26:35;;;;;;;5.63;2.00;;;;;;;21.26;62.59;100428.44;6299921;28;20052;-78
2021/08/01 12:29:40;;;;;;;6.32;2.15;;;;;;;21.50;64.63;100422.41;6293638;28;20055;-77
2021/08/01 12:32:42;;;;;;;3.50;2.45;;;;;;;22.04;59.98;100420.25;6284119;28;20049;-79
2021/08/01 12:35:45;;;;;;;3.53;1.70;;;;;;;22.47;57.98;100419.16;6274956;28;20049;-79
2021/08/01 12:38:46;;;;;;;3.67;2.03;;;;;;;22.32;57.01;100423.50;6274515;28;20381;-77
2021/08/01 12:41:48;;;;;;;2.85;2.05;;;;;;;21.78;59.45;100418.50;6273541;28;20048;-77
2021/08/01 12:44:52;;;;;;;4.70;2.10;;;;;;;21.26;62.05;100434.63;6276797;28;20045;-77
2021/08/01 12:47:54;;;;;;;4.25;1.92;;;;;;;20.99;62.76;100438.31;6284538;28;20041;-78
2021/08/01 12:50:59;;;;;;;5.63;2.58;;;;;;;20.73;63.18;100434.78;6284427;28;20515;-76
2021/08/01 12:54:01;;;;;;;5.00;2.20;;;;;;;20.52;65.29;100435.91;6283126;28;20051;-76
2021/08/01 12:57:04;;;;;;;5.40;2.85;;;;;;;20.51;64.51;100436.09;6284991;28;20048;-77
2021/08/01 13:00:14;;;;;;;7.07;2.85;;;;;;;20.49;65.25;100436.25;6288958;28;20055;-76
2021/08/01 13:03:16;;;;;;;4.30;2.70;;;;;;;20.56;65.58;100436.47;6286262;28;20055;-75
2021/08/01 13:06:27;;;;;;;2.58;2.20;;;;;;;20.65;66.60;100434.69;6285841;28;20911;-77
2021/08/01 13:09:29;;;;;;;5.97;2.30;;;;;;;20.77;66.34;100428.97;6282916;28;20048;-77
2021/08/01 13:12:30;;;;;;;5.25;1.90;;;;;;;20.67;64.80;100452.25;6285019;28;20049;-76
2021/08/01 13:15:32;;;;;;;4.40;3.60;;;;;;;20.44;71.61;100467.88;6283343;28;20492;-76
2021/08/01 13:18:35;;;;;;;5.82;4.00;;;;;;;19.89;76.63;100480.44;6283207;28;20129;-76
2021/08/01 13:21:38;;;;;;;8.25;3.90;;;;;;;19.44;79.28;100503.34;6281472;28;20416;-76
2021/08/01 13:24:41;;;;;;;5.28;4.35;;;;;;;19.14;82.61;100512.38;6282668;28;20067;-80
2021/08/01 13:27:49;;;;;;;7.43;3.63;;;;;;;18.94;83.61;100521.34;6284576;28;20044;-77
2021/08/01 13:31:04;;;;;;;3.20;2.58;;;;;;;18.65;81.15;100526.66;6283520;28;20053;-78
2021/08/01 13:34:07;;;;;;;2.67;2.10;;;;;;;18.36;78.85;100532.81;6285355;28;20048;-79
2021/08/01 13:37:19;;;;;;;2.15;1.02;;;;;;;17.94;79.42;100556.91;6281162;28;20408;-77
2021/08/01 13:40:29;;;;;;;9.50;1.50;;;;;;;17.54;84.36;100571.91;6291014;28;20048;-76
2021/08/01 13:43:31;;;;;;;5.60;1.90;;;;;;;16.73;97.08;100571.56;6284405;28;20052;-75
2021/08/01 13:46:32;;;;;;;5.55;1.92;;;;;;;16.16;100.00;100578.75;6281608;28;20055;-76
2021/08/01 13:49:33;;;;;;;3.85;1.70;;;;;;;15.87;100.00;100575.75;6282745;28;20040;-75
2021/08/01 13:52:37;;;;;;;2.97;1.30;;;;;;;15.70;100.00;100563.81;6281516;28;20048;-75
2021/08/01 13:55:38;;;;;;;2.50;1.33;;;;;;;15.60;100.00;100552.22;6283117;28;20044;-75